createdAt,value
2018-10-06T00:00:20.208Z,48.63
2018-10-06T00:02:49.314Z,48.74
2018-10-06T00:05:18.334Z,48.96
2018-10-06T00:07:47.320Z,49.62
2018-10-06T00:10:16.426Z,49.10
2018-10-06T00:12:45.967Z,48.79
2018-10-06T00:15:15.014Z,49.33
2018-10-06T00:17:44.062Z,49.11
2018-10-06T00:20:13.305Z,48.75
2018-10-06T00:22:42.206Z,49.39
2018-10-06T00:25:11.330Z,49.62
2018-10-06T00:27:40.289Z,49.52
2018-10-06T00:30:09.569Z,49.10
2018-10-06T00:32:38.623Z,48.98
2018-10-06T00:35:07.546Z,49.39
2018-10-06T00:37:36.648Z,48.71
2018-10-06T00:40:05.794Z,48.92
2018-10-06T00:42:34.764Z,49.26
2018-10-06T00:45:03.768Z,49.73
2018-10-06T00:47:32.932Z,49.82
2018-10-06T00:50:02.039Z,49.56
2018-10-06T00:52:31.116Z,49.30
2018-10-06T00:55:00.139Z,49.93
2018-10-06T00:57:29.260Z,49.30
2018-10-06T00:59:58.355Z,49.48
2018-10-06T01:02:27.498Z,50.34
2018-10-06T01:04:57.043Z,50.24
2018-10-06T01:07:26.038Z,49.99
2018-10-06T01:09:55.350Z,49.48
2018-10-06T01:12:24.400Z,49.87
2018-10-06T01:14:53.308Z,50.49
2018-10-06T01:17:23.104Z,49.63
2018-10-06T01:19:52.476Z,50.15
2018-10-06T01:22:21.588Z,49.66
2018-10-06T01:24:50.529Z,50.43
2018-10-06T01:27:20.082Z,50.48
2018-10-06T01:29:49.044Z,50.11
2018-10-06T01:32:18.170Z,50.57
2018-10-06T01:34:47.178Z,50.27
2018-10-06T01:37:16.288Z,50.07
2018-10-06T01:39:45.257Z,50.14
2018-10-06T01:42:14.169Z,50.50
2018-10-06T01:44:43.134Z,50.74
2018-10-06T01:47:12.170Z,50.55
2018-10-06T01:49:41.210Z,50.69
2018-10-06T01:52:10.110Z,50.80
2018-10-06T01:54:39.150Z,50.94
2018-10-06T01:57:08.075Z,50.43
2018-10-06T01:59:37.158Z,50.49
2018-10-06T02:02:06.461Z,50.96
2018-10-06T02:04:35.423Z,51.26
2018-10-06T02:07:06.089Z,50.94
2018-10-06T02:09:35.078Z,51.56
2018-10-06T02:12:04.073Z,51.51
2018-10-06T02:14:33.782Z,51.72
2018-10-06T02:17:02.740Z,51.33
2018-10-06T02:19:32.081Z,52.09
2018-10-06T02:22:00.946Z,52.09
2018-10-06T02:24:30.312Z,52.62
2018-10-06T02:26:59.553Z,52.65
2018-10-06T02:29:28.439Z,52.85
2018-10-06T02:31:57.574Z,52.38
2018-10-06T02:34:27.492Z,52.73
2018-10-06T02:36:56.733Z,53.17
2018-10-06T02:39:25.891Z,53.32
2018-10-06T02:41:54.729Z,53.54
2018-10-06T02:44:24.294Z,53.48
2018-10-06T02:46:53.328Z,53.07
2018-10-06T02:49:22.392Z,53.75
2018-10-06T02:51:51.746Z,54.01
2018-10-06T02:54:20.715Z,54.07
2018-10-06T02:56:50.326Z,54.45
2018-10-06T02:59:19.378Z,53.95
2018-10-06T03:01:48.477Z,53.91
2018-10-06T03:04:17.513Z,54.41
2018-10-06T03:06:46.609Z,54.36
2018-10-06T03:09:15.717Z,54.75
2018-10-06T03:11:44.822Z,54.88
2018-10-06T03:14:14.031Z,54.36
2018-10-06T03:16:43.199Z,54.66
2018-10-06T03:19:12.187Z,55.18
2018-10-06T03:21:41.211Z,55.43
2018-10-06T03:24:11.379Z,54.78
2018-10-06T03:26:40.383Z,54.77
2018-10-06T03:29:09.549Z,54.75
2018-10-06T03:31:39.105Z,54.76
2018-10-06T03:34:08.210Z,54.58
2018-10-06T03:36:38.030Z,54.69
2018-10-06T03:39:07.521Z,54.80
2018-10-06T03:41:37.139Z,55.63
2018-10-06T03:44:06.066Z,55.75
2018-10-06T03:46:35.017Z,55.70
2018-10-06T03:49:04.210Z,55.73
2018-10-06T03:51:33.319Z,55.68
2018-10-06T03:54:02.507Z,56.26
2018-10-06T03:56:31.645Z,55.60
2018-10-06T03:59:00.607Z,55.33
2018-10-06T04:01:29.693Z,55.43
2018-10-06T04:03:59.358Z,55.72
2018-10-06T04:06:28.312Z,55.55
2018-10-06T04:08:58.738Z,56.19
2018-10-06T04:11:27.653Z,55.62
2018-10-06T04:13:56.693Z,55.90
2018-10-06T04:16:25.683Z,55.93
2018-10-06T04:18:54.729Z,56.52
2018-10-06T04:21:23.794Z,56.24
2018-10-06T04:23:52.885Z,56.64
2018-10-06T04:26:21.819Z,56.48
2018-10-06T04:28:50.742Z,56.39
2018-10-06T04:31:20.268Z,57.23
2018-10-06T04:33:49.332Z,56.61
2018-10-06T04:36:18.430Z,57.22
2018-10-06T04:38:47.668Z,57.14
2018-10-06T04:41:17.620Z,57.08
2018-10-06T04:43:46.560Z,57.45
2018-10-06T04:46:15.474Z,57.96
2018-10-06T04:48:44.475Z,58.01
2018-10-06T04:51:13.781Z,58.54
2018-10-06T04:53:42.917Z,58.38
2018-10-06T04:56:12.149Z,58.06
2018-10-06T04:58:41.417Z,58.94
2018-10-06T05:01:11.465Z,58.87
2018-10-06T05:03:40.567Z,58.52
2018-10-06T05:06:09.537Z,59.12
2018-10-06T05:08:38.676Z,58.59
2018-10-06T05:11:08.793Z,58.93
2018-10-06T05:13:37.751Z,59.24
2018-10-06T05:16:06.827Z,59.37
2018-10-06T05:18:35.849Z,58.56
2018-10-06T05:21:05.650Z,59.08
2018-10-06T05:23:34.725Z,59.39
2018-10-06T05:26:03.989Z,59.37
2018-10-06T05:28:33.203Z,59.65
2018-10-06T05:31:02.202Z,59.35
2018-10-06T05:33:31.207Z,59.32
2018-10-06T05:36:00.125Z,59.27
2018-10-06T05:38:29.094Z,58.73
2018-10-06T05:40:58.146Z,59.18
2018-10-06T05:43:27.170Z,59.25
2018-10-06T05:45:56.591Z,58.57
2018-10-06T05:48:25.613Z,58.54
2018-10-06T05:50:55.044Z,59.24
2018-10-06T05:53:24.498Z,59.04
2018-10-06T05:55:53.485Z,58.60
2018-10-06T05:58:22.513Z,59.25
2018-10-06T06:00:51.615Z,59.14
2018-10-06T06:03:20.702Z,58.74
2018-10-06T06:05:49.786Z,59.33
2018-10-06T06:08:18.795Z,59.29
2018-10-06T06:10:47.849Z,59.33
2018-10-06T06:13:17.050Z,59.23
2018-10-06T06:15:46.225Z,58.72
2018-10-06T06:18:15.466Z,59.37
2018-10-06T06:20:44.577Z,58.80
2018-10-06T06:23:13.818Z,59.15
2018-10-06T06:25:42.982Z,58.82
2018-10-06T06:28:12.177Z,58.66
2018-10-06T06:30:41.315Z,58.62
2018-10-06T06:33:10.444Z,58.38
2018-10-06T06:35:39.650Z,58.50
2018-10-06T06:38:08.650Z,58.76
2018-10-06T06:40:37.569Z,58.89
2018-10-06T06:43:06.630Z,58.17
2018-10-06T06:45:35.525Z,57.92
2018-10-06T06:48:04.430Z,58.66
2018-10-06T06:50:34.319Z,58.25
2018-10-06T06:53:03.597Z,58.78
2018-10-06T06:55:32.812Z,58.79
2018-10-06T06:58:01.918Z,58.75
2018-10-06T07:00:31.230Z,58.22
2018-10-06T07:03:00.370Z,58.03
2018-10-06T07:05:29.630Z,59.12
2018-10-06T07:07:58.637Z,58.51
2018-10-06T07:10:27.727Z,58.56
2018-10-06T07:12:56.682Z,58.22
2018-10-06T07:15:25.670Z,58.33
2018-10-06T07:17:54.691Z,59.07
2018-10-06T07:20:23.772Z,59.00
2018-10-06T07:22:52.708Z,59.19
2018-10-06T07:25:21.851Z,58.82
2018-10-06T07:27:51.114Z,58.23
2018-10-06T07:30:19.980Z,58.66
2018-10-06T07:32:50.348Z,59.05
2018-10-06T07:35:19.614Z,58.47
2018-10-06T07:37:48.615Z,58.44
2018-10-06T07:40:18.057Z,58.43
2018-10-06T07:42:47.297Z,58.97
2018-10-06T07:45:16.422Z,58.92
2018-10-06T07:47:46.491Z,58.83
2018-10-06T07:50:15.355Z,58.48
2018-10-06T07:52:44.389Z,58.62
2018-10-06T07:55:13.307Z,57.87
2018-10-06T07:57:42.310Z,57.61
2018-10-06T08:00:11.601Z,58.00
2018-10-06T08:02:41.680Z,57.39
2018-10-06T08:05:10.751Z,57.73
2018-10-06T08:07:39.840Z,57.72
2018-10-06T08:10:08.909Z,57.98
2018-10-06T08:12:37.829Z,57.55
2018-10-06T08:15:07.308Z,57.59
2018-10-06T08:17:37.166Z,56.73
2018-10-06T08:20:06.317Z,56.53
2018-10-06T08:22:35.338Z,56.34
2018-10-06T08:25:04.607Z,56.90
2018-10-06T08:27:33.684Z,56.69
2018-10-06T08:30:02.600Z,56.73
2018-10-06T08:32:31.534Z,56.33
2018-10-06T08:35:00.614Z,55.47
2018-10-06T08:37:29.835Z,55.33
2018-10-06T08:39:59.215Z,55.37
2018-10-06T08:42:28.370Z,54.61
2018-10-06T08:44:57.267Z,54.42
2018-10-06T08:47:26.369Z,53.88
2018-10-06T08:49:55.712Z,53.84
2018-10-06T08:52:25.038Z,53.46
2018-10-06T08:54:54.060Z,53.50
2018-10-06T08:57:23.233Z,53.67
2018-10-06T08:59:52.299Z,52.74
2018-10-06T09:02:21.353Z,52.54
2018-10-06T09:04:50.326Z,52.44
2018-10-06T09:07:19.732Z,51.69
2018-10-06T09:09:48.740Z,51.74
2018-10-06T09:12:17.717Z,51.54
2018-10-06T09:14:46.821Z,51.14
2018-10-06T09:17:16.457Z,51.23
2018-10-06T09:19:45.842Z,50.67
2018-10-06T09:22:15.124Z,50.30
2018-10-06T09:24:44.105Z,49.89
2018-10-06T09:27:13.147Z,49.53
2018-10-06T09:29:42.609Z,49.37
2018-10-06T09:32:11.485Z,49.56
2018-10-06T09:34:40.783Z,49.01
2018-10-06T09:37:09.955Z,48.93
2018-10-06T09:39:39.167Z,48.82
2018-10-06T09:42:08.257Z,48.54
2018-10-06T09:44:37.502Z,48.09
2018-10-06T09:47:06.476Z,48.59
2018-10-06T09:49:35.714Z,48.05
2018-10-06T09:52:04.783Z,47.35
2018-10-06T09:54:34.301Z,47.28
2018-10-06T09:57:03.967Z,47.17
2018-10-06T09:59:33.183Z,47.07
2018-10-06T10:02:07.632Z,46.93
2018-10-06T10:04:36.730Z,47.43
2018-10-06T10:07:05.703Z,46.81
2018-10-06T10:09:35.077Z,47.24
2018-10-06T10:12:04.206Z,47.07
2018-10-06T10:14:33.312Z,46.79
2018-10-06T10:17:02.470Z,46.13
2018-10-06T10:19:32.082Z,46.35
2018-10-06T10:22:01.348Z,46.34
2018-10-06T10:24:30.450Z,46.34
2018-10-06T10:26:59.524Z,46.11
2018-10-06T10:29:28.622Z,46.03
2018-10-06T10:31:57.627Z,45.32
2018-10-06T10:34:26.767Z,45.33
2018-10-06T10:36:55.800Z,45.49
2018-10-06T10:39:25.492Z,44.50
2018-10-06T10:41:54.766Z,45.00
2018-10-06T10:44:24.622Z,44.68
2018-10-06T10:46:54.485Z,44.46
2018-10-06T10:49:23.696Z,44.36
2018-10-06T10:51:52.801Z,44.79
2018-10-06T10:54:21.870Z,44.34
2018-10-06T10:56:51.131Z,44.05
2018-10-06T10:59:20.187Z,43.40
2018-10-06T11:01:49.300Z,43.45
2018-10-06T11:04:18.326Z,43.39
2018-10-06T11:06:47.338Z,43.41
2018-10-06T11:09:17.129Z,43.46
2018-10-06T11:11:46.137Z,43.40
2018-10-06T11:14:15.117Z,43.04
2018-10-06T11:16:44.113Z,43.74
2018-10-06T11:19:13.908Z,43.24
2018-10-06T11:21:42.999Z,43.14
2018-10-06T11:24:11.988Z,42.60
2018-10-06T11:26:41.260Z,42.99
2018-10-06T11:29:10.509Z,43.17
2018-10-06T11:31:39.453Z,43.08
2018-10-06T11:34:08.721Z,42.37
2018-10-06T11:36:37.665Z,43.07
2018-10-06T11:39:08.258Z,42.42
2018-10-06T11:41:37.284Z,42.11
2018-10-06T11:44:06.413Z,42.29
2018-10-06T11:46:35.379Z,42.20
2018-10-06T11:49:04.871Z,42.25
2018-10-06T11:51:33.964Z,41.97
2018-10-06T11:54:03.268Z,42.14
2018-10-06T11:56:32.481Z,42.03
2018-10-06T11:59:01.687Z,41.57
2018-10-06T12:01:31.496Z,41.49
2018-10-06T12:04:00.675Z,41.92
2018-10-06T12:06:29.798Z,41.11
2018-10-06T12:08:58.795Z,41.12
2018-10-06T12:11:27.960Z,40.90
2018-10-06T12:13:57.099Z,41.51
2018-10-06T12:16:26.058Z,40.86
2018-10-06T12:18:55.144Z,40.94
2018-10-06T12:21:24.062Z,41.36
2018-10-06T12:23:54.199Z,40.95
2018-10-06T12:26:23.875Z,40.52
2018-10-06T12:28:53.064Z,41.28
2018-10-06T12:31:22.655Z,40.64
2018-10-06T12:33:51.738Z,41.15
2018-10-06T12:36:20.700Z,41.04
2018-10-06T12:38:49.679Z,40.08
2018-10-06T12:41:18.935Z,40.20
2018-10-06T12:43:48.103Z,40.78
2018-10-06T12:46:17.024Z,40.03
2018-10-06T12:48:46.644Z,40.06
2018-10-06T12:51:15.554Z,40.52
2018-10-06T12:53:45.055Z,39.71
2018-10-06T12:56:14.205Z,40.02
2018-10-06T12:58:43.244Z,40.14
2018-10-06T13:01:12.269Z,39.74
2018-10-06T13:03:41.642Z,40.16
2018-10-06T13:06:10.755Z,40.28
2018-10-06T13:08:39.873Z,40.19
2018-10-06T13:11:09.103Z,40.27
2018-10-06T13:13:38.873Z,40.27
2018-10-06T13:16:08.176Z,40.22
2018-10-06T13:18:37.529Z,40.09
2018-10-06T13:21:06.867Z,39.62
2018-10-06T13:23:36.893Z,40.70
2018-10-06T13:26:05.867Z,40.11
2018-10-06T13:28:34.917Z,41.07
2018-10-06T13:31:04.066Z,40.69
2018-10-06T13:33:33.070Z,41.24
2018-10-06T13:36:02.047Z,41.85
2018-10-06T13:38:31.041Z,41.33
2018-10-06T13:41:00.990Z,42.10
2018-10-06T13:43:30.445Z,42.00
2018-10-06T13:45:59.457Z,42.01
2018-10-06T13:48:29.422Z,41.42
2018-10-06T13:50:59.460Z,41.26
2018-10-06T13:53:28.467Z,41.78
2018-10-06T13:55:58.385Z,41.87
2018-10-06T13:58:27.445Z,41.07
2018-10-06T14:00:56.427Z,41.19
2018-10-06T14:03:26.057Z,42.06
2018-10-06T14:05:55.087Z,41.33
2018-10-06T14:08:24.057Z,41.87
2018-10-06T14:10:53.792Z,41.57
2018-10-06T14:13:23.088Z,41.65
2018-10-06T14:15:51.893Z,41.75
2018-10-06T14:18:20.946Z,41.70
2018-10-06T14:20:49.921Z,42.12
2018-10-06T14:23:18.918Z,42.33
2018-10-06T14:25:48.134Z,42.99
2018-10-06T14:28:17.133Z,42.83
2018-10-06T14:30:46.270Z,43.40
2018-10-06T14:33:15.161Z,43.76
2018-10-06T14:35:44.738Z,43.42
2018-10-06T14:38:13.727Z,43.74
2018-10-06T14:40:43.022Z,44.04
2018-10-06T14:43:11.933Z,43.54
2018-10-06T14:45:41.097Z,44.09
2018-10-06T14:48:09.912Z,44.16
2018-10-06T14:50:38.761Z,43.69
2018-10-06T14:53:07.995Z,44.33
2018-10-06T14:55:37.124Z,43.68
2018-10-06T14:58:06.258Z,44.40
2018-10-06T15:00:35.198Z,43.86
2018-10-06T15:03:04.134Z,44.73
2018-10-06T15:05:33.035Z,44.49
2018-10-06T15:08:02.023Z,44.95
2018-10-06T15:10:31.014Z,45.09
2018-10-06T15:13:00.093Z,44.93
2018-10-06T15:15:29.105Z,45.17
2018-10-06T15:17:58.775Z,45.41
2018-10-06T15:20:27.741Z,44.98
2018-10-06T15:22:57.317Z,45.74
2018-10-06T15:25:26.217Z,45.92
2018-10-06T15:27:55.239Z,45.38
2018-10-06T15:30:24.498Z,45.20
2018-10-06T15:32:53.521Z,45.56
2018-10-06T15:35:22.679Z,46.17
2018-10-06T15:37:51.730Z,46.03
2018-10-06T15:40:20.880Z,46.12
2018-10-06T15:42:49.975Z,46.10
2018-10-06T15:45:19.164Z,46.23
2018-10-06T15:47:51.560Z,46.32
2018-10-06T15:50:21.469Z,46.13
2018-10-06T15:52:50.559Z,46.92
2018-10-06T15:55:19.833Z,46.41
2018-10-06T15:57:48.816Z,46.36
2018-10-06T16:00:18.467Z,46.75
2018-10-06T16:02:47.560Z,46.73
2018-10-06T16:05:16.638Z,47.72
2018-10-06T16:07:45.750Z,47.16
2018-10-06T16:10:15.137Z,47.88
2018-10-06T16:12:45.326Z,47.93
2018-10-06T16:15:14.445Z,48.46
2018-10-06T16:17:43.519Z,48.27
2018-10-06T16:20:12.412Z,48.86
2018-10-06T16:22:41.506Z,48.60
2018-10-06T16:25:10.935Z,49.25
2018-10-06T16:27:40.077Z,49.20
2018-10-06T16:30:09.729Z,49.00
2018-10-06T16:32:38.881Z,49.48
2018-10-06T16:35:07.785Z,49.74
2018-10-06T16:37:36.760Z,49.79
2018-10-06T16:40:05.891Z,50.75
2018-10-06T16:42:34.849Z,50.45
2018-10-06T16:45:04.151Z,50.61
2018-10-06T16:47:33.570Z,51.48
2018-10-06T16:50:03.265Z,51.57
2018-10-06T16:52:32.292Z,51.20
2018-10-06T16:55:01.146Z,51.97
2018-10-06T16:57:30.357Z,52.12
2018-10-06T16:59:59.536Z,51.91
2018-10-06T17:02:28.743Z,52.29
2018-10-06T17:04:58.005Z,52.54
2018-10-06T17:07:27.080Z,53.31
2018-10-06T17:09:56.031Z,53.07
2018-10-06T17:12:25.076Z,53.19
2018-10-06T17:14:54.325Z,53.75
2018-10-06T17:17:23.218Z,54.07
2018-10-06T17:19:52.277Z,53.54
2018-10-06T17:22:21.371Z,54.14
2018-10-06T17:24:50.498Z,54.21
2018-10-06T17:27:19.769Z,54.82
2018-10-06T17:29:48.758Z,54.45
2018-10-06T17:32:17.870Z,54.79
2018-10-06T17:34:47.051Z,54.28
2018-10-06T17:37:16.179Z,54.86
2018-10-06T17:39:45.251Z,55.16
2018-10-06T17:42:14.387Z,55.03
2018-10-06T17:44:43.374Z,55.66
2018-10-06T17:47:12.602Z,55.73
2018-10-06T17:49:41.656Z,55.89
2018-10-06T17:52:11.969Z,55.37
2018-10-06T17:54:41.215Z,55.33
2018-10-06T17:57:10.266Z,56.32
2018-10-06T17:59:39.323Z,55.96
2018-10-06T18:02:08.357Z,56.32
2018-10-06T18:04:37.372Z,56.19
2018-10-06T18:07:06.948Z,57.07
2018-10-06T18:09:36.429Z,56.61
2018-10-06T18:12:05.349Z,57.04
2018-10-06T18:14:34.442Z,56.82
2018-10-06T18:17:03.590Z,57.58
2018-10-06T18:19:32.909Z,57.40
2018-10-06T18:22:01.969Z,57.77
2018-10-06T18:24:31.396Z,57.09
2018-10-06T18:27:01.174Z,57.45
2018-10-06T18:29:30.520Z,57.96
2018-10-06T18:32:00.831Z,58.31
2018-10-06T18:34:29.827Z,58.15
2018-10-06T18:36:59.207Z,57.83
2018-10-06T18:39:28.473Z,58.04
2018-10-06T18:41:57.409Z,58.13
2018-10-06T18:44:26.425Z,57.89
2018-10-06T18:46:55.707Z,58.93
2018-10-06T18:49:24.932Z,58.69
2018-10-06T18:51:54.105Z,58.54
2018-10-06T18:54:23.130Z,59.17
2018-10-06T18:56:52.120Z,58.96
2018-10-06T18:59:21.303Z,59.37
2018-10-06T19:01:50.367Z,59.10
2018-10-06T19:04:19.573Z,59.10
2018-10-06T19:06:48.860Z,59.97
2018-10-06T19:09:17.909Z,59.68
2018-10-06T19:11:47.132Z,60.13
2018-10-06T19:14:16.288Z,60.42
2018-10-06T19:16:45.300Z,59.84
2018-10-06T19:19:14.601Z,59.82
2018-10-06T19:21:43.610Z,60.77
2018-10-06T19:24:12.546Z,60.64
2018-10-06T19:26:41.866Z,60.39
2018-10-06T19:29:10.993Z,60.73
2018-10-06T19:31:40.107Z,61.25
2018-10-06T19:34:09.123Z,61.13
2018-10-06T19:36:38.555Z,61.23
2018-10-06T19:39:08.329Z,61.98
2018-10-06T19:41:37.694Z,61.28
2018-10-06T19:44:06.634Z,61.38
2018-10-06T19:46:35.725Z,62.26
2018-10-06T19:49:04.906Z,61.67
2018-10-06T19:51:34.161Z,62.00
2018-10-06T19:54:03.414Z,62.43
2018-10-06T19:56:32.324Z,62.06
2018-10-06T19:59:01.396Z,62.93
2018-10-06T20:01:30.346Z,62.48
2018-10-06T20:03:59.578Z,62.74
2018-10-06T20:06:28.733Z,63.57
2018-10-06T20:08:57.858Z,63.72
2018-10-06T20:11:27.867Z,63.86
2018-10-06T20:13:56.817Z,63.34
2018-10-06T20:16:25.904Z,63.87
2018-10-06T20:18:55.053Z,63.89
2018-10-06T20:21:24.239Z,63.61
2018-10-06T20:23:53.282Z,64.03
2018-10-06T20:26:22.425Z,64.01
2018-10-06T20:28:51.364Z,63.63
2018-10-06T20:31:20.757Z,63.56
2018-10-06T20:33:50.331Z,64.40
2018-10-06T20:36:19.317Z,64.48
2018-10-06T20:38:48.666Z,64.31
2018-10-06T20:41:18.051Z,63.80
2018-10-06T20:43:47.035Z,63.99
2018-10-06T20:46:15.995Z,63.91
2018-10-06T20:48:45.116Z,64.32
2018-10-06T20:51:14.169Z,64.00
2018-10-06T20:53:43.117Z,64.31
2018-10-06T20:56:12.116Z,64.28
2018-10-06T20:58:41.618Z,64.87
2018-10-06T21:01:10.571Z,64.38
2018-10-06T21:03:39.640Z,64.71
2018-10-06T21:06:08.722Z,64.90
2018-10-06T21:08:37.610Z,64.92
2018-10-06T21:11:06.832Z,64.87
2018-10-06T21:13:35.877Z,64.58
2018-10-06T21:16:05.296Z,64.41
2018-10-06T21:18:34.340Z,65.12
2018-10-06T21:21:03.460Z,64.26
2018-10-06T21:23:32.457Z,65.10
2018-10-06T21:26:01.470Z,64.92
2018-10-06T21:28:30.569Z,64.91
2018-10-06T21:30:59.787Z,65.21
2018-10-06T21:33:28.873Z,64.57
2018-10-06T21:35:57.950Z,65.22
2018-10-06T21:38:27.086Z,65.12
2018-10-06T21:40:56.279Z,64.50
2018-10-06T21:43:26.148Z,64.90
2018-10-06T21:45:55.192Z,64.96
2018-10-06T21:48:24.071Z,65.84
2018-10-06T21:50:53.156Z,65.01
2018-10-06T21:53:23.732Z,65.89
2018-10-06T21:55:53.041Z,65.62
2018-10-06T21:58:22.782Z,65.91
2018-10-06T22:00:57.496Z,65.89
2018-10-06T22:03:26.636Z,66.37
2018-10-06T22:05:55.682Z,66.75
2018-10-06T22:08:24.701Z,66.00
2018-10-06T22:10:53.712Z,66.66
2018-10-06T22:13:23.639Z,66.30
2018-10-06T22:15:52.801Z,66.89
2018-10-06T22:18:21.879Z,66.70
2018-10-06T22:20:51.729Z,66.99
2018-10-06T22:23:20.653Z,67.13
2018-10-06T22:25:49.714Z,67.29
2018-10-06T22:28:19.254Z,66.73
2018-10-06T22:30:48.295Z,66.72
2018-10-06T22:33:18.216Z,67.08
2018-10-06T22:35:48.006Z,66.63
2018-10-06T22:38:16.865Z,66.89
2018-10-06T22:40:46.432Z,67.10
2018-10-06T22:43:15.434Z,66.41
2018-10-06T22:45:44.317Z,66.89
2018-10-06T22:48:13.215Z,66.21
2018-10-06T22:50:42.449Z,66.98
2018-10-06T22:53:11.533Z,66.87
2018-10-06T22:55:40.854Z,66.56
2018-10-06T22:58:09.814Z,66.87
2018-10-06T23:00:38.905Z,66.44
2018-10-06T23:03:09.220Z,66.85
2018-10-06T23:05:38.822Z,67.08
2018-10-06T23:08:07.950Z,66.89
2018-10-06T23:10:37.018Z,66.88
2018-10-06T23:13:05.890Z,67.33
2018-10-06T23:15:35.588Z,67.43
2018-10-06T23:18:04.422Z,67.40
2018-10-06T23:20:33.644Z,67.64
2018-10-06T23:23:02.801Z,67.62
2018-10-06T23:25:31.853Z,68.06
2018-10-06T23:28:00.910Z,68.19
2018-10-06T23:30:29.979Z,68.39
2018-10-06T23:32:58.988Z,67.92
2018-10-06T23:35:28.366Z,68.32
2018-10-06T23:37:58.128Z,68.74
2018-10-06T23:40:27.042Z,68.71
2018-10-06T23:42:55.947Z,68.90
2018-10-06T23:45:25.001Z,68.85
2018-10-06T23:47:54.058Z,69.23
2018-10-06T23:50:23.233Z,68.92
2018-10-06T23:52:52.255Z,68.94
2018-10-06T23:55:21.329Z,68.70
2018-10-06T23:57:50.438Z,68.49
